Donnie Sonier — WDF9285 — position and weather

sailwx.info

Track history (hours):
 
Tides and Currents Weather Stations Pressure Air Temp Water Temp Dewpoint Dewpoint Depression Visibility Wind Speed Wind Dir Waves Ship Positions

Donnie Sonier

Owner: LeBeouf Bros. Towing, LLC, Houma, LA. More information available from US FCC via Universal Licensing System and Coast Guard Vessel Documentation Center.

Last reported at 2016-Jul-27 22:33 UTC. Time now 2016-Jul-27 23:02 UTC.
Position N 30°14' W 093°16'.

Length 22 m.

Type: Tug. MMSI: 367503580.

Date/timePositionNaut miles runAvg speedWind from/ knotsBaromVisibWave heightAir tempDewpointWater temp
2016-Jul-27 22:33N 30°14' W 093°16'0 0.0
2016-Jul-27 21:33N 30°14' W 093°16'0 0.0
2016-Jul-27 20:33N 30°14' W 093°16'0 0.0
2016-Jul-27 19:33N 30°14' W 093°16'0 0.0
2016-Jul-27 18:34N 30°14' W 093°16'0 0.0
2016-Jul-27 17:33N 30°14' W 093°16'0 0.0
2016-Jul-27 16:34N 30°14' W 093°16'0 0.0
2016-Jul-27 15:33N 30°14' W 093°16'0 0.0
2016-Jul-27 14:33N 30°14' W 093°16'0 0.0
2016-Jul-27 13:33N 30°14' W 093°16'0 0.0
2016-Jul-27 12:33N 30°14' W 093°16'0 0.0
2016-Jul-27 11:33N 30°14' W 093°16'0 0.0
2016-Jul-27 10:33N 30°14' W 093°16'0 0.0
2016-Jul-27 09:33N 30°14' W 093°16'0 0.0
2016-Jul-27 08:33N 30°14' W 093°16'0 0.0
2016-Jul-27 07:33N 30°14' W 093°16'0 0.0
2016-Jul-27 06:33N 30°14' W 093°16'0 0.0
2016-Jul-27 05:33N 30°14' W 093°16'0 0.0
2016-Jul-27 04:33N 30°14' W 093°16'0 0.0
2016-Jul-27 03:33N 30°14' W 093°16'0 0.0
2016-Jul-27 02:33N 30°14' W 093°16'0 0.0
2016-Jul-27 01:33N 30°14' W 093°16'0 0.0
2016-Jul-27 00:33N 30°14' W 093°16'0 0.0
2016-Jul-26 23:33N 30°14' W 093°16'0 0.0
2016-Jul-26 22:33N 30°14' W 093°16'0 0.0
2016-Jul-26 21:33N 30°14' W 093°16'0 0.0
2016-Jul-26 20:33N 30°14' W 093°16'0 0.0
2016-Jul-26 19:33N 30°14' W 093°16'0 0.0
2016-Jul-26 18:33N 30°14' W 093°16'0 0.0
2016-Jul-26 17:33N 30°14' W 093°16'0 0.0
2016-Jul-26 16:33N 30°14' W 093°16'0 0.0
2016-Jul-26 15:33N 30°14' W 093°16'0 0.0
2016-Jul-26 14:33N 30°14' W 093°16'0 0.0
2016-Jul-26 13:34N 30°14' W 093°16'0 0.0
2016-Jul-26 12:33N 30°14' W 093°16'0 0.0
2016-Jul-26 11:33N 30°14' W 093°16'0 0.0
2016-Jul-26 10:33N 30°14' W 093°16'0 0.0
2016-Jul-26 09:33N 30°14' W 093°16'0 0.0
2016-Jul-26 08:33N 30°14' W 093°16'0 0.0
2016-Jul-26 07:33N 30°14' W 093°16'0 0.0
2016-Jul-26 06:33N 30°14' W 093°16'0 0.0
2016-Jul-26 05:33N 30°14' W 093°16'0 0.0
2016-Jul-26 04:33N 30°14' W 093°16'0 0.0
2016-Jul-26 03:33N 30°14' W 093°16'0 0.0
2016-Jul-26 02:33N 30°14' W 093°16'0 0.0
2016-Jul-26 01:33N 30°14' W 093°16'0 0.0
2016-Jul-26 00:33N 30°14' W 093°16'0 0.0
2016-Jul-25 23:33N 30°14' W 093°16'0 0.0
2016-Jul-25 22:34N 30°14' W 093°16'0 0.0
2016-Jul-25 21:33N 30°14' W 093°16'0 0.0
2016-Jul-25 20:33N 30°14' W 093°16'0 0.0
2016-Jul-25 19:33N 30°14' W 093°16'0 0.0
2016-Jul-25 18:33N 30°14' W 093°16'0 0.0
2016-Jul-25 17:33N 30°14' W 093°16'0 0.0
2016-Jul-25 16:33N 30°14' W 093°16'0 0.0
2016-Jul-25 15:34N 30°14' W 093°16'0 0.0
2016-Jul-25 14:33N 30°14' W 093°16'0 0.0
2016-Jul-25 13:33N 30°14' W 093°16'0 0.0
2016-Jul-25 12:33N 30°14' W 093°16'0 0.0
2016-Jul-25 11:33N 30°14' W 093°16'0 0.0
2016-Jul-25 10:33N 30°14' W 093°16'0 0.0
2016-Jul-25 09:33N 30°14' W 093°16'0 0.0
2016-Jul-25 08:33N 30°14' W 093°16'0 0.0
2016-Jul-25 07:33N 30°14' W 093°16'0 0.0
2016-Jul-25 06:33N 30°14' W 093°16'0 0.0
2016-Jul-25 05:33N 30°14' W 093°16'5 5.3
2016-Jul-25 04:33N 30°09' W 093°20'3 3.3
2016-Jul-25 03:33N 30°06' W 093°18'2 2.1
2016-Jul-25 02:33N 30°08' W 093°20'6 6.0
2016-Jul-25 01:33N 30°13' W 093°16'1 0.6
2016-Jul-25 00:33N 30°14' W 093°16'0 0.0
2016-Jul-24 23:33N 30°14' W 093°16'0 0.0
2016-Jul-24 22:33N 30°14' W 093°16'0 0.0
2016-Jul-24 21:34N 30°14' W 093°16'0 0.0
2016-Jul-24 20:33N 30°14' W 093°16'0 0.0
2016-Jul-24 19:33N 30°14' W 093°16'0 0.0
2016-Jul-24 18:33N 30°14' W 093°16'0 0.0
2016-Jul-24 17:33N 30°14' W 093°16'0 0.0
2016-Jul-24 16:33N 30°14' W 093°16'0 0.0
2016-Jul-24 15:33N 30°14' W 093°16'0 0.0
2016-Jul-24 14:33N 30°14' W 093°16'0 0.0
2016-Jul-24 13:33N 30°14' W 093°16'0 0.0
2016-Jul-24 12:33N 30°14' W 093°16'0 0.0
2016-Jul-24 11:34N 30°14' W 093°16'0 0.0
2016-Jul-24 10:34N 30°14' W 093°16'0 0.0
2016-Jul-24 09:33N 30°14' W 093°16'0 0.0
2016-Jul-24 08:33N 30°14' W 093°16'0 0.0
2016-Jul-24 07:34N 30°14' W 093°16'0 0.0
2016-Jul-24 06:33N 30°14' W 093°16'0 0.0
2016-Jul-24 05:33N 30°14' W 093°16'0 0.0
2016-Jul-24 04:33N 30°14' W 093°16'0 0.0
2016-Jul-24 03:34N 30°14' W 093°16'0 0.0
2016-Jul-24 02:33N 30°14' W 093°16'0 0.0
2016-Jul-24 01:34N 30°14' W 093°16'0 0.0
2016-Jul-24 00:32N 30°14' W 093°16'0 0.0
2016-Jul-23 23:33N 30°14' W 093°16'0 0.0
2016-Jul-23 22:33N 30°14' W 093°16'0 0.0
2016-Jul-23 21:33N 30°14' W 093°16'0 0.0
2016-Jul-23 20:33N 30°14' W 093°16'0 0.0
2016-Jul-23 19:33N 30°14' W 093°16'0 0.0
2016-Jul-23 18:34N 30°14' W 093°16'0 0.0
2016-Jul-23 17:33N 30°14' W 093°16'0 0.0
2016-Jul-23 16:33N 30°14' W 093°16'0 0.0
2016-Jul-23 15:34N 30°14' W 093°16'0 0.0
2016-Jul-23 14:33N 30°14' W 093°16'0 0.0
2016-Jul-23 13:34N 30°14' W 093°16'0 0.0
2016-Jul-23 12:34N 30°14' W 093°16'0 0.0
2016-Jul-23 11:34N 30°14' W 093°16'0 0.0
2016-Jul-23 10:33N 30°14' W 093°16'0 0.0
2016-Jul-23 09:33N 30°14' W 093°16'0 0.0
2016-Jul-23 08:29N 30°14' W 093°16'0 0.0
2016-Jul-23 07:33N 30°14' W 093°16'0 0.0
2016-Jul-23 06:29N 30°14' W 093°16'0 0.0
2016-Jul-23 04:34N 30°14' W 093°16'0 0.0
2016-Jul-23 03:34N 30°14' W 093°16'0 0.0
2016-Jul-23 02:33N 30°14' W 093°16'0 0.0
2016-Jul-23 01:33N 30°14' W 093°16'0 0.0
2016-Jul-23 00:33N 30°14' W 093°16'0 0.0
2016-Jul-22 23:34N 30°14' W 093°16'0 0.0
2016-Jul-22 22:34N 30°14' W 093°16'0 0.0
2016-Jul-22 21:33N 30°14' W 093°16'0 0.0
2016-Jul-22 20:34N 30°14' W 093°16'0 0.0
2016-Jul-22 19:33N 30°14' W 093°16'0 0.0
2016-Jul-22 18:33N 30°14' W 093°16'0 0.0
2016-Jul-22 17:34N 30°14' W 093°16'0 0.0
2016-Jul-22 16:34N 30°14' W 093°16'0 0.0
2016-Jul-22 15:33N 30°14' W 093°16'0 0.0
2016-Jul-22 14:34N 30°14' W 093°16'0 0.0
2016-Jul-22 13:33N 30°14' W 093°16'0 0.0
2016-Jul-22 12:34N 30°14' W 093°16'0 0.0
2016-Jul-22 11:34N 30°14' W 093°16'0 0.0
2016-Jul-22 10:34N 30°14' W 093°16'0 0.0
2016-Jul-22 09:34N 30°14' W 093°16'0 0.0
2016-Jul-22 08:33N 30°14' W 093°16'0 0.0
2016-Jul-22 07:34N 30°14' W 093°16'0 0.0
2016-Jul-22 05:34N 30°14' W 093°16'0 0.0
2016-Jul-22 04:33N 30°14' W 093°16'0 0.0
2016-Jul-22 03:34N 30°14' W 093°16'0 0.0
2016-Jul-22 02:34N 30°14' W 093°16'0 0.0
2016-Jul-22 01:34N 30°14' W 093°16'0 0.0
2016-Jul-22 00:33N 30°14' W 093°16'0 0.0
2016-Jul-21 23:34N 30°14' W 093°16'0 0.0
2016-Jul-21 22:33N 30°14' W 093°16'0 0.0
2016-Jul-21 21:34N 30°14' W 093°16'0 0.0
2016-Jul-21 20:33N 30°14' W 093°16'0 0.0
2016-Jul-21 19:33N 30°14' W 093°16'0 0.0
2016-Jul-21 18:33N 30°14' W 093°16'0 0.0
2016-Jul-21 17:33N 30°14' W 093°16'0 0.0
2016-Jul-21 16:34N 30°14' W 093°16'0 0.0
2016-Jul-21 15:34N 30°14' W 093°16'0 0.0
2016-Jul-21 14:34N 30°14' W 093°16'0 0.0
2016-Jul-21 13:34N 30°14' W 093°16'0 0.0
2016-Jul-21 12:34N 30°14' W 093°16'0 0.0
2016-Jul-21 11:33N 30°14' W 093°16'0 0.0
2016-Jul-21 10:33N 30°14' W 093°16'0 0.0
2016-Jul-21 09:33N 30°14' W 093°16'0 0.0
2016-Jul-21 08:34N 30°14' W 093°16'0 0.0
2016-Jul-21 07:33N 30°14' W 093°16'0 0.0
2016-Jul-21 06:33N 30°14' W 093°16'0 0.0
2016-Jul-21 05:34N 30°14' W 093°16'0 0.0
2016-Jul-21 04:33N 30°14' W 093°16'0 0.0
2016-Jul-21 03:34N 30°14' W 093°16'0 0.0
2016-Jul-21 02:33N 30°14' W 093°16'0 0.0
2016-Jul-21 01:33N 30°14' W 093°16'0 0.0
2016-Jul-21 00:33N 30°14' W 093°16'0 0.0
2016-Jul-20 23:33N 30°14' W 093°16'0 0.0
2016-Jul-20 22:33N 30°14' W 093°16'0 0.0
2016-Jul-20 21:33N 30°14' W 093°16'0 0.0
2016-Jul-20 20:33N 30°14' W 093°16'0 0.0
2016-Jul-20 19:34N 30°14' W 093°16'0 0.0
2016-Jul-20 18:33N 30°14' W 093°16'0 0.0
2016-Jul-20 17:33N 30°14' W 093°16'0 0.0
2016-Jul-20 16:34N 30°14' W 093°16'0 0.0
2016-Jul-20 15:34N 30°14' W 093°16'0 0.0
2016-Jul-20 14:34N 30°14' W 093°16'0 0.0
2016-Jul-20 13:34N 30°14' W 093°16'0 0.0
2016-Jul-20 12:33N 30°14' W 093°16'0 0.0
2016-Jul-20 11:33N 30°14' W 093°16'0 0.0
2016-Jul-20 10:33N 30°14' W 093°16'0 0.0
2016-Jul-20 09:33N 30°14' W 093°16'0 0.0
2016-Jul-20 08:34N 30°14' W 093°16'0 0.0
2016-Jul-20 07:33N 30°14' W 093°16'0 0.0
2016-Jul-20 06:34N 30°14' W 093°16'0 0.0
2016-Jul-20 05:33N 30°14' W 093°16'0 0.0
2016-Jul-20 04:34N 30°14' W 093°16'0 0.0
2016-Jul-20 03:34N 30°14' W 093°16'0 0.0
2016-Jul-20 02:34N 30°14' W 093°16'0 0.0
2016-Jul-20 01:33N 30°14' W 093°16'0 0.0
2016-Jul-20 00:33N 30°14' W 093°16'0 0.0
2016-Jul-19 23:33N 30°14' W 093°16'0 0.0
2016-Jul-19 22:34N 30°14' W 093°16'0 0.0
2016-Jul-19 21:33N 30°14' W 093°16'0 0.0
2016-Jul-19 20:33N 30°14' W 093°16'0 0.0
2016-Jul-19 19:33N 30°14' W 093°16'0 0.0
2016-Jul-19 18:34N 30°14' W 093°16'0 0.0
2016-Jul-19 17:33N 30°14' W 093°16'0 0.0
2016-Jul-19 16:33N 30°14' W 093°16'0 0.0
2016-Jul-19 15:33N 30°14' W 093°16'0 0.0
2016-Jul-19 14:34N 30°14' W 093°16'0 0.0
2016-Jul-19 13:33N 30°14' W 093°16'0 0.0
2016-Jul-19 12:34N 30°14' W 093°16'0 0.0
2016-Jul-19 11:34N 30°14' W 093°16'0 0.0
2016-Jul-19 10:33N 30°14' W 093°16'0 0.0
2016-Jul-19 09:34N 30°14' W 093°16'0 0.0
2016-Jul-19 08:34N 30°14' W 093°16'0 0.0
2016-Jul-19 07:33N 30°14' W 093°16'0 0.0
2016-Jul-19 04:33N 30°14' W 093°16'0 0.0
2016-Jul-19 03:33N 30°14' W 093°16'1 0.6
2016-Jul-19 02:34N 30°13' W 093°16'5 5.1
2016-Jul-19 01:33N 30°09' W 093°20'5 4.8
2016-Jul-19 00:34N 30°04' W 093°20'5 4.9
2016-Jul-18 23:34N 30°04' W 093°26'6 5.5
2016-Jul-18 22:34N 30°04' W 093°32'5 5.0
2016-Jul-18 21:34N 30°04' W 093°38'6 5.6
2016-Jul-18 20:34N 30°02' W 093°44'68 4.3
2016-Jul-18 04:33N 29°38' W 094°58'8 7.2
2016-Jul-18 03:31N 29°44' W 095°03'  
Track history (hours):
 
Tides and Currents Weather Stations Pressure Air Temp Water Temp Dewpoint Dewpoint Depression Visibility Wind Speed Wind Dir Waves Ship Positions

Donnie Sonier

Owner: LeBeouf Bros. Towing, LLC, Houma, LA. More information available from US FCC via Universal Licensing System and Coast Guard Vessel Documentation Center.

Last reported at 2016-Jul-27 22:33 UTC. Time now 2016-Jul-27 23:02 UTC.
Position N 30°14' W 093°16'.

Length 22 m.

Type: Tug. MMSI: 367503580.

Date/timePositionNaut miles runAvg speedWind from/ knotsBaromVisibWave heightAir tempDewpointWater temp
2016-Jul-27 22:33N 30°14' W 093°16'0 0.0
2016-Jul-27 21:33N 30°14' W 093°16'0 0.0
2016-Jul-27 20:33N 30°14' W 093°16'0 0.0
2016-Jul-27 19:33N 30°14' W 093°16'0 0.0
2016-Jul-27 18:34N 30°14' W 093°16'0 0.0
2016-Jul-27 17:33N 30°14' W 093°16'0 0.0
2016-Jul-27 16:34N 30°14' W 093°16'0 0.0
2016-Jul-27 15:33N 30°14' W 093°16'0 0.0
2016-Jul-27 14:33N 30°14' W 093°16'0 0.0
2016-Jul-27 13:33N 30°14' W 093°16'0 0.0
2016-Jul-27 12:33N 30°14' W 093°16'0 0.0
2016-Jul-27 11:33N 30°14' W 093°16'0 0.0
2016-Jul-27 10:33N 30°14' W 093°16'0 0.0
2016-Jul-27 09:33N 30°14' W 093°16'0 0.0
2016-Jul-27 08:33N 30°14' W 093°16'0 0.0
2016-Jul-27 07:33N 30°14' W 093°16'0 0.0
2016-Jul-27 06:33N 30°14' W 093°16'0 0.0
2016-Jul-27 05:33N 30°14' W 093°16'0 0.0
2016-Jul-27 04:33N 30°14' W 093°16'0 0.0
2016-Jul-27 03:33N 30°14' W 093°16'0 0.0
2016-Jul-27 02:33N 30°14' W 093°16'0 0.0
2016-Jul-27 01:33N 30°14' W 093°16'0 0.0
2016-Jul-27 00:33N 30°14' W 093°16'0 0.0
2016-Jul-26 23:33N 30°14' W 093°16'0 0.0
2016-Jul-26 22:33N 30°14' W 093°16'0 0.0
2016-Jul-26 21:33N 30°14' W 093°16'0 0.0
2016-Jul-26 20:33N 30°14' W 093°16'0 0.0
2016-Jul-26 19:33N 30°14' W 093°16'0 0.0
2016-Jul-26 18:33N 30°14' W 093°16'0 0.0
2016-Jul-26 17:33N 30°14' W 093°16'0 0.0
2016-Jul-26 16:33N 30°14' W 093°16'0 0.0
2016-Jul-26 15:33N 30°14' W 093°16'0 0.0
2016-Jul-26 14:33N 30°14' W 093°16'0 0.0
2016-Jul-26 13:34N 30°14' W 093°16'0 0.0
2016-Jul-26 12:33N 30°14' W 093°16'0 0.0
2016-Jul-26 11:33N 30°14' W 093°16'0 0.0
2016-Jul-26 10:33N 30°14' W 093°16'0 0.0
2016-Jul-26 09:33N 30°14' W 093°16'0 0.0
2016-Jul-26 08:33N 30°14' W 093°16'0 0.0
2016-Jul-26 07:33N 30°14' W 093°16'0 0.0
2016-Jul-26 06:33N 30°14' W 093°16'0 0.0
2016-Jul-26 05:33N 30°14' W 093°16'0 0.0
2016-Jul-26 04:33N 30°14' W 093°16'0 0.0
2016-Jul-26 03:33N 30°14' W 093°16'0 0.0
2016-Jul-26 02:33N 30°14' W 093°16'0 0.0
2016-Jul-26 01:33N 30°14' W 093°16'0 0.0
2016-Jul-26 00:33N 30°14' W 093°16'0 0.0
2016-Jul-25 23:33N 30°14' W 093°16'0 0.0
2016-Jul-25 22:34N 30°14' W 093°16'0 0.0
2016-Jul-25 21:33N 30°14' W 093°16'0 0.0
2016-Jul-25 20:33N 30°14' W 093°16'0 0.0
2016-Jul-25 19:33N 30°14' W 093°16'0 0.0
2016-Jul-25 18:33N 30°14' W 093°16'0 0.0
2016-Jul-25 17:33N 30°14' W 093°16'0 0.0
2016-Jul-25 16:33N 30°14' W 093°16'0 0.0
2016-Jul-25 15:34N 30°14' W 093°16'0 0.0
2016-Jul-25 14:33N 30°14' W 093°16'0 0.0
2016-Jul-25 13:33N 30°14' W 093°16'0 0.0
2016-Jul-25 12:33N 30°14' W 093°16'0 0.0
2016-Jul-25 11:33N 30°14' W 093°16'0 0.0
2016-Jul-25 10:33N 30°14' W 093°16'0 0.0
2016-Jul-25 09:33N 30°14' W 093°16'0 0.0
2016-Jul-25 08:33N 30°14' W 093°16'0 0.0
2016-Jul-25 07:33N 30°14' W 093°16'0 0.0
2016-Jul-25 06:33N 30°14' W 093°16'0 0.0
2016-Jul-25 05:33N 30°14' W 093°16'5 5.3
2016-Jul-25 04:33N 30°09' W 093°20'3 3.3
2016-Jul-25 03:33N 30°06' W 093°18'2 2.1
2016-Jul-25 02:33N 30°08' W 093°20'6 6.0
2016-Jul-25 01:33N 30°13' W 093°16'1 0.6
2016-Jul-25 00:33N 30°14' W 093°16'0 0.0
2016-Jul-24 23:33N 30°14' W 093°16'0 0.0
2016-Jul-24 22:33N 30°14' W 093°16'0 0.0
2016-Jul-24 21:34N 30°14' W 093°16'0 0.0
2016-Jul-24 20:33N 30°14' W 093°16'0 0.0
2016-Jul-24 19:33N 30°14' W 093°16'0 0.0
2016-Jul-24 18:33N 30°14' W 093°16'0 0.0
2016-Jul-24 17:33N 30°14' W 093°16'0 0.0
2016-Jul-24 16:33N 30°14' W 093°16'0 0.0
2016-Jul-24 15:33N 30°14' W 093°16'0 0.0
2016-Jul-24 14:33N 30°14' W 093°16'0 0.0
2016-Jul-24 13:33N 30°14' W 093°16'0 0.0
2016-Jul-24 12:33N 30°14' W 093°16'0 0.0
2016-Jul-24 11:34N 30°14' W 093°16'0 0.0
2016-Jul-24 10:34N 30°14' W 093°16'0 0.0
2016-Jul-24 09:33N 30°14' W 093°16'0 0.0
2016-Jul-24 08:33N 30°14' W 093°16'0 0.0
2016-Jul-24 07:34N 30°14' W 093°16'0 0.0
2016-Jul-24 06:33N 30°14' W 093°16'0 0.0
2016-Jul-24 05:33N 30°14' W 093°16'0 0.0
2016-Jul-24 04:33N 30°14' W 093°16'0 0.0
2016-Jul-24 03:34N 30°14' W 093°16'0 0.0
2016-Jul-24 02:33N 30°14' W 093°16'0 0.0
2016-Jul-24 01:34N 30°14' W 093°16'0 0.0
2016-Jul-24 00:32N 30°14' W 093°16'0 0.0
2016-Jul-23 23:33N 30°14' W 093°16'0 0.0
2016-Jul-23 22:33N 30°14' W 093°16'0 0.0
2016-Jul-23 21:33N 30°14' W 093°16'0 0.0
2016-Jul-23 20:33N 30°14' W 093°16'0 0.0
2016-Jul-23 19:33N 30°14' W 093°16'0 0.0
2016-Jul-23 18:34N 30°14' W 093°16'0 0.0
2016-Jul-23 17:33N 30°14' W 093°16'0 0.0
2016-Jul-23 16:33N 30°14' W 093°16'0 0.0
2016-Jul-23 15:34N 30°14' W 093°16'0 0.0
2016-Jul-23 14:33N 30°14' W 093°16'0 0.0
2016-Jul-23 13:34N 30°14' W 093°16'0 0.0
2016-Jul-23 12:34N 30°14' W 093°16'0 0.0
2016-Jul-23 11:34N 30°14' W 093°16'0 0.0
2016-Jul-23 10:33N 30°14' W 093°16'0 0.0
2016-Jul-23 09:33N 30°14' W 093°16'0 0.0
2016-Jul-23 08:29N 30°14' W 093°16'0 0.0
2016-Jul-23 07:33N 30°14' W 093°16'0 0.0
2016-Jul-23 06:29N 30°14' W 093°16'0 0.0
2016-Jul-23 04:34N 30°14' W 093°16'0 0.0
2016-Jul-23 03:34N 30°14' W 093°16'0 0.0
2016-Jul-23 02:33N 30°14' W 093°16'0 0.0
2016-Jul-23 01:33N 30°14' W 093°16'0 0.0
2016-Jul-23 00:33N 30°14' W 093°16'0 0.0
2016-Jul-22 23:34N 30°14' W 093°16'0 0.0
2016-Jul-22 22:34N 30°14' W 093°16'0 0.0
2016-Jul-22 21:33N 30°14' W 093°16'0 0.0
2016-Jul-22 20:34N 30°14' W 093°16'0 0.0
2016-Jul-22 19:33N 30°14' W 093°16'0 0.0
2016-Jul-22 18:33N 30°14' W 093°16'0 0.0
2016-Jul-22 17:34N 30°14' W 093°16'0 0.0
2016-Jul-22 16:34N 30°14' W 093°16'0 0.0
2016-Jul-22 15:33N 30°14' W 093°16'0 0.0
2016-Jul-22 14:34N 30°14' W 093°16'0 0.0
2016-Jul-22 13:33N 30°14' W 093°16'0 0.0
2016-Jul-22 12:34N 30°14' W 093°16'0 0.0
2016-Jul-22 11:34N 30°14' W 093°16'0 0.0
2016-Jul-22 10:34N 30°14' W 093°16'0 0.0
2016-Jul-22 09:34N 30°14' W 093°16'0 0.0
2016-Jul-22 08:33N 30°14' W 093°16'0 0.0
2016-Jul-22 07:34N 30°14' W 093°16'0 0.0
2016-Jul-22 05:34N 30°14' W 093°16'0 0.0
2016-Jul-22 04:33N 30°14' W 093°16'0 0.0
2016-Jul-22 03:34N 30°14' W 093°16'0 0.0
2016-Jul-22 02:34N 30°14' W 093°16'0 0.0
2016-Jul-22 01:34N 30°14' W 093°16'0 0.0
2016-Jul-22 00:33N 30°14' W 093°16'0 0.0
2016-Jul-21 23:34N 30°14' W 093°16'0 0.0
2016-Jul-21 22:33N 30°14' W 093°16'0 0.0
2016-Jul-21 21:34N 30°14' W 093°16'0 0.0
2016-Jul-21 20:33N 30°14' W 093°16'0 0.0
2016-Jul-21 19:33N 30°14' W 093°16'0 0.0
2016-Jul-21 18:33N 30°14' W 093°16'0 0.0
2016-Jul-21 17:33N 30°14' W 093°16'0 0.0
2016-Jul-21 16:34N 30°14' W 093°16'0 0.0
2016-Jul-21 15:34N 30°14' W 093°16'0 0.0
2016-Jul-21 14:34N 30°14' W 093°16'0 0.0
2016-Jul-21 13:34N 30°14' W 093°16'0 0.0
2016-Jul-21 12:34N 30°14' W 093°16'0 0.0
2016-Jul-21 11:33N 30°14' W 093°16'0 0.0
2016-Jul-21 10:33N 30°14' W 093°16'0 0.0
2016-Jul-21 09:33N 30°14' W 093°16'0 0.0
2016-Jul-21 08:34N 30°14' W 093°16'0 0.0
2016-Jul-21 07:33N 30°14' W 093°16'0 0.0
2016-Jul-21 06:33N 30°14' W 093°16'0 0.0
2016-Jul-21 05:34N 30°14' W 093°16'0 0.0
2016-Jul-21 04:33N 30°14' W 093°16'0 0.0
2016-Jul-21 03:34N 30°14' W 093°16'0 0.0
2016-Jul-21 02:33N 30°14' W 093°16'0 0.0
2016-Jul-21 01:33N 30°14' W 093°16'0 0.0
2016-Jul-21 00:33N 30°14' W 093°16'0 0.0
2016-Jul-20 23:33N 30°14' W 093°16'0 0.0
2016-Jul-20 22:33N 30°14' W 093°16'0 0.0
2016-Jul-20 21:33N 30°14' W 093°16'0 0.0
2016-Jul-20 20:33N 30°14' W 093°16'0 0.0
2016-Jul-20 19:34N 30°14' W 093°16'0 0.0
2016-Jul-20 18:33N 30°14' W 093°16'0 0.0
2016-Jul-20 17:33N 30°14' W 093°16'0 0.0
2016-Jul-20 16:34N 30°14' W 093°16'0 0.0
2016-Jul-20 15:34N 30°14' W 093°16'0 0.0
2016-Jul-20 14:34N 30°14' W 093°16'0 0.0
2016-Jul-20 13:34N 30°14' W 093°16'0 0.0
2016-Jul-20 12:33N 30°14' W 093°16'0 0.0
2016-Jul-20 11:33N 30°14' W 093°16'0 0.0
2016-Jul-20 10:33N 30°14' W 093°16'0 0.0
2016-Jul-20 09:33N 30°14' W 093°16'0 0.0
2016-Jul-20 08:34N 30°14' W 093°16'0 0.0
2016-Jul-20 07:33N 30°14' W 093°16'0 0.0
2016-Jul-20 06:34N 30°14' W 093°16'0 0.0
2016-Jul-20 05:33N 30°14' W 093°16'0 0.0
2016-Jul-20 04:34N 30°14' W 093°16'0 0.0
2016-Jul-20 03:34N 30°14' W 093°16'0 0.0
2016-Jul-20 02:34N 30°14' W 093°16'0 0.0
2016-Jul-20 01:33N 30°14' W 093°16'0 0.0
2016-Jul-20 00:33N 30°14' W 093°16'0 0.0
2016-Jul-19 23:33N 30°14' W 093°16'0 0.0
2016-Jul-19 22:34N 30°14' W 093°16'0 0.0
2016-Jul-19 21:33N 30°14' W 093°16'0 0.0
2016-Jul-19 20:33N 30°14' W 093°16'0 0.0
2016-Jul-19 19:33N 30°14' W 093°16'0 0.0
2016-Jul-19 18:34N 30°14' W 093°16'0 0.0
2016-Jul-19 17:33N 30°14' W 093°16'0 0.0
2016-Jul-19 16:33N 30°14' W 093°16'0 0.0
2016-Jul-19 15:33N 30°14' W 093°16'0 0.0
2016-Jul-19 14:34N 30°14' W 093°16'0 0.0
2016-Jul-19 13:33N 30°14' W 093°16'0 0.0
2016-Jul-19 12:34N 30°14' W 093°16'0 0.0
2016-Jul-19 11:34N 30°14' W 093°16'0 0.0
2016-Jul-19 10:33N 30°14' W 093°16'0 0.0
2016-Jul-19 09:34N 30°14' W 093°16'0 0.0
2016-Jul-19 08:34N 30°14' W 093°16'0 0.0
2016-Jul-19 07:33N 30°14' W 093°16'0 0.0
2016-Jul-19 04:33N 30°14' W 093°16'0 0.0
2016-Jul-19 03:33N 30°14' W 093°16'1 0.6
2016-Jul-19 02:34N 30°13' W 093°16'5 5.1
2016-Jul-19 01:33N 30°09' W 093°20'5 4.8
2016-Jul-19 00:34N 30°04' W 093°20'5 4.9
2016-Jul-18 23:34N 30°04' W 093°26'6 5.5
2016-Jul-18 22:34N 30°04' W 093°32'5 5.0
2016-Jul-18 21:34N 30°04' W 093°38'6 5.6
2016-Jul-18 20:34N 30°02' W 093°44'68 4.3
2016-Jul-18 04:33N 29°38' W 094°58'8 7.2
2016-Jul-18 03:31N 29°44' W 095°03'  

Dump ship's entire track history